Seaspan Chiwan — VRBH3 — position and weather

sailwx.info

Track history (hours):
 
Tides and Currents Weather Stations Pressure Air Temp Water Temp Dewpoint Dewpoint Depression Visibility Wind Speed Wind Dir Waves Ship Positions

Seaspan Chiwan

Last reported at 2014-Sep-01 12:00 UTC. Time now 2014-Sep-01 14:02 UTC.
Position N 29°06' W 045°42'.

Length 260 m; draft 10.9 m.

Type: Cargo ship. MMSI: 477014500.

Wind from 090 at 7 knots

Waves 1.0 meters (3 feet), 5 second period

Barometer 1028.0 mb
Air temperature 30.0 ° C
Visibility: greater than 10.8 NM
Dewpoint 22.8 ° C
Water temperature 22.0 ° C

Date/timePositionNaut miles runAvg speedWind from/ knotsBaromVisibWave heightAir tempDewpointWater temp
2014-Sep-01 12:00N 29°06' W 045°42'9616.0 090 / 71028.010.8 1.030.022.822.0
2014-Sep-01 06:00N 29°42' W 044°00'19015.9 100 / 61025.010.8 27.022.624.0
2014-Aug-31 18:00N 30°54' W 040°36'18215.2 1028.010.8 30.022.825.0
2014-Aug-31 06:00N 31°48' W 037°12'46515.5 250 / 131027.010.8 1.027.024.124.0
2014-Aug-30 00:00N 33°48' W 028°18'37315.6 170 / 61028.010.8 0.527.022.622.0
2014-Aug-29 00:00N 35°00' W 020°54'9415.7 090 / 81027.010.8 0.526.019.921.0
2014-Aug-28 18:00N 35°12' W 019°00'18617.0 100 / 41028.010.8 1.029.021.625.0
2014-Aug-28 07:00N 35°24' W 015°12'11316.1 040 / 101023.010.8 2.022.018.920.0
2014-Aug-28 00:00N 35°30' W 012°54'17815.5 020 / 141023.010.8 1.025.022.020.0
2014-Aug-27 12:33N 35°49' W 009°17'36815.2
2014-Aug-26 12:18N 36°44' W 001°45'1315.6
2014-Aug-26 11:27N 36°53' W 001°33'1516.2
2014-Aug-26 10:33N 37°02' W 001°19'3216.1
2014-Aug-26 08:32N 37°24' W 000°48'1616.1
2014-Aug-26 07:33N 37°34' W 000°33'1615.7
2014-Aug-26 06:32N 37°48' W 000°22'1615.9
2014-Aug-26 05:33N 38°01' W 000°12'1615.8
2014-Aug-26 04:33N 38°14' W 000°01'1615.7
2014-Aug-26 03:33N 38°27' E 000°10'1715.4
2014-Aug-26 02:26N 38°42' E 000°21'5514.1
2014-Aug-25 22:34N 39°27' W 000°19'0 0.0
2014-Aug-25 21:33N 39°27' W 000°19'0 0.0
2014-Aug-25 20:33N 39°27' W 000°19'0 0.0
2014-Aug-25 19:33N 39°27' W 000°19'0 0.0
2014-Aug-25 18:33N 39°27' W 000°19'0 0.0
2014-Aug-25 17:33N 39°27' W 000°19'0 0.0
2014-Aug-25 16:33N 39°27' W 000°19'0 0.0
2014-Aug-25 15:33N 39°27' W 000°19'0 0.0
2014-Aug-25 14:33N 39°27' W 000°19'0 0.0
2014-Aug-25 13:33N 39°27' W 000°19'0 0.0
2014-Aug-25 12:33N 39°27' W 000°19'0 0.0
2014-Aug-25 11:33N 39°27' W 000°19'0 0.0
2014-Aug-25 10:33N 39°27' W 000°19'0 0.0
2014-Aug-25 09:33N 39°27' W 000°19'0 0.0
2014-Aug-25 08:33N 39°27' W 000°19'5 5.3
2014-Aug-25 07:33N 39°25' W 000°12'7111.8
2014-Aug-25 01:33N 39°53' E 001°12'1212.4
2014-Aug-25 00:33N 40°04' E 001°19'1212.4
2014-Aug-24 23:33N 40°15' E 001°27'1212.4
2014-Aug-24 22:33N 40°25' E 001°35'1212.4
2014-Aug-24 21:33N 40°36' E 001°42'1312.8
2014-Aug-24 20:33N 40°48' E 001°50'1312.8
2014-Aug-24 19:33N 40°59' E 001°58'1312.6
2014-Aug-24 18:33N 41°11' E 002°06'10 0.9
2014-Aug-24 08:06N 41°16' E 002°16'712.3
2014-Aug-24 07:32N 41°17' E 002°25'1211.8
2014-Aug-24 06:33N 41°22' E 002°39'1412.6
2014-Aug-24 05:25N 41°30' E 002°55'4 4.7
2014-Aug-24 04:29N 41°28' E 002°50'1311.7
2014-Aug-24 03:22N 41°36' E 003°03'2211.9
2014-Aug-24 01:28N 41°50' E 003°28'1212.6
2014-Aug-24 00:30N 41°58' E 003°39'1313.4
2014-Aug-23 23:33N 42°09' E 003°49'1313.5
2014-Aug-23 22:33N 42°19' E 004°01'1413.1
2014-Aug-23 21:29N 42°30' E 004°13'2612.9
2014-Aug-23 19:29N 42°49' E 004°36'37 2.3
2014-Aug-23 03:31N 43°25' E 004°51'0 0.0
2014-Aug-23 02:31N 43°25' E 004°51'0 0.0
2014-Aug-23 01:31N 43°25' E 004°51'4 4.6
2014-Aug-23 00:33N 43°22' E 004°56'1 0.6
2014-Aug-22 23:32N 43°22' E 004°56'0 0.0
2014-Aug-22 22:29N 43°22' E 004°56'0 0.0
2014-Aug-22 21:32N 43°22' E 004°56'0 0.0
2014-Aug-22 20:32N 43°22' E 004°56'0 0.0
2014-Aug-22 19:29N 43°22' E 004°56'0 0.0
2014-Aug-22 18:32N 43°22' E 004°56'0 0.0
2014-Aug-22 17:32N 43°22' E 004°56'0 0.0
2014-Aug-22 16:32N 43°22' E 004°56'0 0.0
2014-Aug-22 15:33N 43°22' E 004°56'0 0.0
2014-Aug-22 14:33N 43°22' E 004°56'0 0.0
2014-Aug-22 13:33N 43°22' E 004°56'0 0.0
2014-Aug-22 12:33N 43°22' E 004°56'  
Track history (hours):
 
Tides and Currents Weather Stations Pressure Air Temp Water Temp Dewpoint Dewpoint Depression Visibility Wind Speed Wind Dir Waves Ship Positions

Seaspan Chiwan

Last reported at 2014-Sep-01 12:00 UTC. Time now 2014-Sep-01 14:02 UTC.
Position N 29°06' W 045°42'.

Length 260 m; draft 10.9 m.

Type: Cargo ship. MMSI: 477014500.

Wind from 090 at 7 knots

Waves 1.0 meters (3 feet), 5 second period

Barometer 1028.0 mb
Air temperature 30.0 ° C
Visibility: greater than 10.8 NM
Dewpoint 22.8 ° C
Water temperature 22.0 ° C

Date/timePositionNaut miles runAvg speedWind from/ knotsBaromVisibWave heightAir tempDewpointWater temp
2014-Sep-01 12:00N 29°06' W 045°42'9616.0 090 / 71028.010.8 1.030.022.822.0
2014-Sep-01 06:00N 29°42' W 044°00'19015.9 100 / 61025.010.8 27.022.624.0
2014-Aug-31 18:00N 30°54' W 040°36'18215.2 1028.010.8 30.022.825.0
2014-Aug-31 06:00N 31°48' W 037°12'46515.5 250 / 131027.010.8 1.027.024.124.0
2014-Aug-30 00:00N 33°48' W 028°18'37315.6 170 / 61028.010.8 0.527.022.622.0
2014-Aug-29 00:00N 35°00' W 020°54'9415.7 090 / 81027.010.8 0.526.019.921.0
2014-Aug-28 18:00N 35°12' W 019°00'18617.0 100 / 41028.010.8 1.029.021.625.0
2014-Aug-28 07:00N 35°24' W 015°12'11316.1 040 / 101023.010.8 2.022.018.920.0
2014-Aug-28 00:00N 35°30' W 012°54'17815.5 020 / 141023.010.8 1.025.022.020.0
2014-Aug-27 12:33N 35°49' W 009°17'36815.2
2014-Aug-26 12:18N 36°44' W 001°45'1315.6
2014-Aug-26 11:27N 36°53' W 001°33'1516.2
2014-Aug-26 10:33N 37°02' W 001°19'3216.1
2014-Aug-26 08:32N 37°24' W 000°48'1616.1
2014-Aug-26 07:33N 37°34' W 000°33'1615.7
2014-Aug-26 06:32N 37°48' W 000°22'1615.9
2014-Aug-26 05:33N 38°01' W 000°12'1615.8
2014-Aug-26 04:33N 38°14' W 000°01'1615.7
2014-Aug-26 03:33N 38°27' E 000°10'1715.4
2014-Aug-26 02:26N 38°42' E 000°21'5514.1
2014-Aug-25 22:34N 39°27' W 000°19'0 0.0
2014-Aug-25 21:33N 39°27' W 000°19'0 0.0
2014-Aug-25 20:33N 39°27' W 000°19'0 0.0
2014-Aug-25 19:33N 39°27' W 000°19'0 0.0
2014-Aug-25 18:33N 39°27' W 000°19'0 0.0
2014-Aug-25 17:33N 39°27' W 000°19'0 0.0
2014-Aug-25 16:33N 39°27' W 000°19'0 0.0
2014-Aug-25 15:33N 39°27' W 000°19'0 0.0
2014-Aug-25 14:33N 39°27' W 000°19'0 0.0
2014-Aug-25 13:33N 39°27' W 000°19'0 0.0
2014-Aug-25 12:33N 39°27' W 000°19'0 0.0
2014-Aug-25 11:33N 39°27' W 000°19'0 0.0
2014-Aug-25 10:33N 39°27' W 000°19'0 0.0
2014-Aug-25 09:33N 39°27' W 000°19'0 0.0
2014-Aug-25 08:33N 39°27' W 000°19'5 5.3
2014-Aug-25 07:33N 39°25' W 000°12'7111.8
2014-Aug-25 01:33N 39°53' E 001°12'1212.4
2014-Aug-25 00:33N 40°04' E 001°19'1212.4
2014-Aug-24 23:33N 40°15' E 001°27'1212.4
2014-Aug-24 22:33N 40°25' E 001°35'1212.4
2014-Aug-24 21:33N 40°36' E 001°42'1312.8
2014-Aug-24 20:33N 40°48' E 001°50'1312.8
2014-Aug-24 19:33N 40°59' E 001°58'1312.6
2014-Aug-24 18:33N 41°11' E 002°06'10 0.9
2014-Aug-24 08:06N 41°16' E 002°16'712.3
2014-Aug-24 07:32N 41°17' E 002°25'1211.8
2014-Aug-24 06:33N 41°22' E 002°39'1412.6
2014-Aug-24 05:25N 41°30' E 002°55'4 4.7
2014-Aug-24 04:29N 41°28' E 002°50'1311.7
2014-Aug-24 03:22N 41°36' E 003°03'2211.9
2014-Aug-24 01:28N 41°50' E 003°28'1212.6
2014-Aug-24 00:30N 41°58' E 003°39'1313.4
2014-Aug-23 23:33N 42°09' E 003°49'1313.5
2014-Aug-23 22:33N 42°19' E 004°01'1413.1
2014-Aug-23 21:29N 42°30' E 004°13'2612.9
2014-Aug-23 19:29N 42°49' E 004°36'37 2.3
2014-Aug-23 03:31N 43°25' E 004°51'0 0.0
2014-Aug-23 02:31N 43°25' E 004°51'0 0.0
2014-Aug-23 01:31N 43°25' E 004°51'4 4.6
2014-Aug-23 00:33N 43°22' E 004°56'1 0.6
2014-Aug-22 23:32N 43°22' E 004°56'0 0.0
2014-Aug-22 22:29N 43°22' E 004°56'0 0.0
2014-Aug-22 21:32N 43°22' E 004°56'0 0.0
2014-Aug-22 20:32N 43°22' E 004°56'0 0.0
2014-Aug-22 19:29N 43°22' E 004°56'0 0.0
2014-Aug-22 18:32N 43°22' E 004°56'0 0.0
2014-Aug-22 17:32N 43°22' E 004°56'0 0.0
2014-Aug-22 16:32N 43°22' E 004°56'0 0.0
2014-Aug-22 15:33N 43°22' E 004°56'0 0.0
2014-Aug-22 14:33N 43°22' E 004°56'0 0.0
2014-Aug-22 13:33N 43°22' E 004°56'0 0.0
2014-Aug-22 12:33N 43°22' E 004°56'  

Dump ship's entire track history